createdAt,value
2022-08-01T00:01:17.487Z,20.40
2022-08-01T00:03:45.626Z,20.40
2022-08-01T00:06:12.807Z,20.30
2022-08-01T00:08:40.695Z,20.20
2022-08-01T00:11:07.572Z,20.20
2022-08-01T00:13:36.112Z,20.20
2022-08-01T00:16:03.868Z,20.10
2022-08-01T00:18:31.737Z,20.10
2022-08-01T00:20:58.895Z,20.00
2022-08-01T00:23:26.958Z,20.10
2022-08-01T00:25:54.815Z,20.10
2022-08-01T00:28:22.790Z,20.10
2022-08-01T00:30:49.761Z,20.00
2022-08-01T00:33:17.577Z,19.90
2022-08-01T00:35:44.890Z,19.90
2022-08-01T00:38:13.279Z,19.80
2022-08-01T00:40:40.872Z,19.70
2022-08-01T00:43:08.885Z,19.70
2022-08-01T00:45:35.811Z,19.80
2022-08-01T00:48:04.076Z,19.70
2022-08-01T00:50:32.153Z,19.60
2022-08-01T00:53:02.290Z,19.60
2022-08-01T00:55:30.696Z,19.50
2022-08-01T00:58:04.649Z,19.50
2022-08-01T01:00:52.013Z,19.50
2022-08-01T01:03:29.427Z,19.40
2022-08-01T01:06:22.089Z,19.60
2022-08-01T01:08:59.323Z,19.70
2022-08-01T01:11:38.533Z,19.70
2022-08-01T01:14:14.610Z,19.80
2022-08-01T01:16:46.542Z,19.90
2022-08-01T01:19:21.895Z,19.90
2022-08-01T01:22:20.214Z,19.90
2022-08-01T01:25:04.050Z,20.00
2022-08-01T01:27:50.849Z,20.10
2022-08-01T01:30:18.179Z,20.20
2022-08-01T01:32:50.937Z,20.20
2022-08-01T01:35:35.088Z,20.20
2022-08-01T01:38:09.951Z,20.20
2022-08-01T01:40:38.207Z,20.20
2022-08-01T01:43:11.315Z,20.20
2022-08-01T01:45:40.186Z,20.20
2022-08-01T01:48:11.318Z,20.10
2022-08-01T01:50:39.826Z,20.10
2022-08-01T01:53:08.855Z,20.00
2022-08-01T01:55:49.302Z,19.90
2022-08-01T01:58:20.658Z,19.80
2022-08-01T02:00:50.777Z,19.80
2022-08-01T02:03:20.057Z,19.60
2022-08-01T02:05:49.527Z,19.50
2022-08-01T02:08:18.271Z,19.40
2022-08-01T02:11:05.194Z,19.30
2022-08-01T02:13:35.552Z,19.30
2022-08-01T02:16:05.401Z,19.20
2022-08-01T02:18:34.152Z,19.10
2022-08-01T02:21:06.433Z,19.10
2022-08-01T02:23:37.070Z,19.10
2022-08-01T02:26:11.678Z,19.00
2022-08-01T02:28:47.071Z,19.00
2022-08-01T02:31:20.156Z,18.90
2022-08-01T02:33:58.021Z,18.80
2022-08-01T02:36:31.362Z,18.70
2022-08-01T02:39:07.351Z,18.70
2022-08-01T02:41:40.608Z,18.60
2022-08-01T02:44:10.283Z,18.70
2022-08-01T02:46:50.015Z,18.60
2022-08-01T02:49:22.301Z,18.60
2022-08-01T02:51:52.459Z,18.50
2022-08-01T02:54:23.216Z,18.50
2022-08-01T02:56:52.787Z,18.50
2022-08-01T02:59:26.679Z,18.50
2022-08-01T03:01:57.123Z,18.50
2022-08-01T03:04:26.439Z,18.40
2022-08-01T03:06:59.354Z,18.50
2022-08-01T03:09:28.094Z,18.50
2022-08-01T03:12:02.033Z,18.50
2022-08-01T03:14:31.820Z,18.50
2022-08-01T03:17:01.930Z,18.50
2022-08-01T03:19:31.354Z,18.50
2022-08-01T03:22:00.628Z,18.40
2022-08-01T03:24:30.063Z,18.40
2022-08-01T03:26:59.282Z,18.40
2022-08-01T03:29:30.856Z,18.40
2022-08-01T03:32:02.798Z,18.30
2022-08-01T03:34:31.712Z,18.30
2022-08-01T03:37:25.211Z,18.30
2022-08-01T03:40:02.248Z,18.30
2022-08-01T03:42:53.848Z,18.30
2022-08-01T03:45:28.343Z,18.30
2022-08-01T03:48:02.345Z,18.20
2022-08-01T03:50:34.739Z,18.20
2022-08-01T03:53:05.154Z,18.30
2022-08-01T03:55:35.152Z,18.30
2022-08-01T03:58:09.627Z,18.30
2022-08-01T04:00:42.396Z,18.30
2022-08-01T04:03:11.203Z,18.30
2022-08-01T04:05:42.410Z,18.30
2022-08-01T04:08:10.303Z,18.30
2022-08-01T04:10:38.467Z,18.20
2022-08-01T04:13:06.025Z,18.20
2022-08-01T04:15:34.070Z,18.30
2022-08-01T04:18:01.065Z,18.30
2022-08-01T04:20:29.486Z,18.30
2022-08-01T04:22:57.209Z,18.30
2022-08-01T04:25:33.978Z,18.30
2022-08-01T04:28:04.992Z,18.40
2022-08-01T04:30:35.808Z,18.40
2022-08-01T04:33:07.771Z,18.40
2022-08-01T04:36:04.096Z,18.40
2022-08-01T04:38:30.693Z,18.40
2022-08-01T04:40:58.952Z,18.40
2022-08-01T04:43:32.759Z,18.40
2022-08-01T04:46:01.165Z,18.60
2022-08-01T04:48:34.502Z,18.60
2022-08-01T04:51:02.861Z,18.60
2022-08-01T04:53:33.331Z,18.70
2022-08-01T04:56:01.599Z,18.70
2022-08-01T04:58:30.265Z,18.80
2022-08-01T05:00:57.940Z,18.80
2022-08-01T05:03:25.978Z,18.80
2022-08-01T05:05:52.890Z,18.90
2022-08-01T05:08:21.529Z,19.00
2022-08-01T05:10:48.402Z,19.00
2022-08-01T05:13:16.646Z,19.10
2022-08-01T05:15:44.992Z,19.10
2022-08-01T05:18:13.511Z,19.20
2022-08-01T05:20:42.493Z,19.30
2022-08-01T05:23:10.999Z,19.30
2022-08-01T05:25:56.753Z,19.40
2022-08-01T05:28:26.577Z,19.50
2022-08-01T05:30:56.140Z,19.60
2022-08-01T05:33:24.582Z,19.60
2022-08-01T05:35:52.067Z,20.20
2022-08-01T05:38:19.975Z,21.00
2022-08-01T05:40:48.048Z,21.50
2022-08-01T05:43:14.986Z,21.60
2022-08-01T05:45:43.198Z,21.70
2022-08-01T05:48:11.017Z,21.70
2022-08-01T05:50:39.281Z,21.80
2022-08-01T05:53:07.155Z,21.70
2022-08-01T05:55:36.125Z,21.70
2022-08-01T05:58:03.433Z,21.70
2022-08-01T06:00:31.507Z,21.80
2022-08-01T06:02:59.651Z,21.80
2022-08-01T06:05:27.028Z,21.80
2022-08-01T06:07:54.960Z,21.80
2022-08-01T06:10:23.353Z,21.70
2022-08-01T06:12:51.655Z,21.70
2022-08-01T06:15:20.031Z,21.60
2022-08-01T06:17:48.130Z,21.60
2022-08-01T06:20:16.673Z,21.60
2022-08-01T06:22:44.000Z,21.60
2022-08-01T06:25:12.263Z,21.60
2022-08-01T06:27:40.032Z,21.70
2022-08-01T06:30:08.711Z,21.70
2022-08-01T06:32:37.187Z,21.70
2022-08-01T06:35:06.004Z,21.80
2022-08-01T06:37:33.506Z,21.90
2022-08-01T06:40:07.386Z,22.00
2022-08-01T06:42:38.844Z,22.00
2022-08-01T06:45:09.072Z,22.00
2022-08-01T06:47:38.333Z,22.10
2022-08-01T06:50:09.617Z,22.10
2022-08-01T06:52:38.329Z,22.10
2022-08-01T06:55:06.561Z,22.20
2022-08-01T06:57:34.517Z,22.20
2022-08-01T07:00:10.333Z,22.30
2022-08-01T07:02:38.318Z,22.30
2022-08-01T07:05:07.183Z,22.30
2022-08-01T07:07:35.290Z,22.30
2022-08-01T07:10:04.163Z,22.40
2022-08-01T07:12:33.865Z,22.40
2022-08-01T07:15:01.032Z,22.50
2022-08-01T07:17:29.050Z,22.60
2022-08-01T07:19:57.888Z,22.80
2022-08-01T07:22:25.062Z,22.90
2022-08-01T07:24:55.264Z,23.20
2022-08-01T07:27:25.813Z,23.90
2022-08-01T07:29:54.622Z,24.60
2022-08-01T07:32:23.527Z,25.60
2022-08-01T07:34:51.919Z,26.20
2022-08-01T07:37:19.364Z,26.60
2022-08-01T07:40:08.106Z,26.80
2022-08-01T07:42:36.310Z,27.20
2022-08-01T07:45:04.992Z,27.40
2022-08-01T07:47:33.129Z,27.70
2022-08-01T07:50:01.985Z,28.10
2022-08-01T07:52:31.285Z,28.80
2022-08-01T07:54:59.920Z,29.20
2022-08-01T07:57:28.850Z,29.30
2022-08-01T07:59:56.396Z,29.40
2022-08-01T08:02:24.547Z,29.40
2022-08-01T08:04:52.989Z,29.10
2022-08-01T08:07:20.096Z,29.20
2022-08-01T08:09:51.211Z,29.50
2022-08-01T08:12:28.705Z,29.40
2022-08-01T08:14:59.908Z,29.80
2022-08-01T08:17:28.849Z,30.10
2022-08-01T08:20:09.292Z,30.00
2022-08-01T08:22:37.654Z,29.80
2022-08-01T08:25:07.612Z,30.20
2022-08-01T08:27:37.410Z,29.90
2022-08-01T08:30:12.112Z,29.70
2022-08-01T08:32:39.651Z,29.80
2022-08-01T08:35:08.903Z,29.40
2022-08-01T08:37:47.261Z,29.50
2022-08-01T08:40:16.719Z,29.60
2022-08-01T08:42:45.185Z,29.90
2022-08-01T08:45:13.574Z,30.00
2022-08-01T08:47:42.730Z,30.50
2022-08-01T08:50:11.290Z,31.10
2022-08-01T08:52:40.562Z,30.80
2022-08-01T08:55:10.448Z,30.70
2022-08-01T08:57:41.738Z,30.70
2022-08-01T09:00:11.713Z,30.60
2022-08-01T09:02:47.507Z,30.50
2022-08-01T09:05:19.664Z,30.30
2022-08-01T09:07:48.383Z,30.50
2022-08-01T09:10:16.607Z,30.50
2022-08-01T09:13:14.156Z,31.20
2022-08-01T09:15:51.306Z,31.50
2022-08-01T09:18:35.854Z,31.50
2022-08-01T09:21:22.340Z,31.50
2022-08-01T09:23:53.502Z,31.10
2022-08-01T09:26:31.788Z,30.80
2022-08-01T09:29:03.167Z,31.30
2022-08-01T09:31:47.090Z,32.20
2022-08-01T09:34:25.219Z,31.50
2022-08-01T09:37:02.137Z,31.30
2022-08-01T09:39:38.570Z,31.20
2022-08-01T09:42:29.357Z,31.10
2022-08-01T09:44:57.203Z,31.10
2022-08-01T09:47:40.766Z,31.20
2022-08-01T09:50:11.096Z,31.30
2022-08-01T09:52:41.069Z,31.40
2022-08-01T09:55:11.353Z,31.50
2022-08-01T09:57:41.427Z,31.30
2022-08-01T10:00:42.777Z,31.00
2022-08-01T10:03:24.825Z,31.10
2022-08-01T10:05:58.277Z,31.50
2022-08-01T10:08:28.366Z,31.60
2022-08-01T10:11:12.212Z,32.20
2022-08-01T10:13:41.202Z,32.20
2022-08-01T10:16:10.710Z,32.80
2022-08-01T10:18:41.997Z,32.80
2022-08-01T10:21:10.950Z,32.50
2022-08-01T10:23:41.275Z,32.50
2022-08-01T10:26:12.872Z,32.10
2022-08-01T10:28:46.062Z,31.30
2022-08-01T10:31:15.076Z,31.30
2022-08-01T10:33:51.333Z,31.00
2022-08-01T10:36:25.394Z,30.70
2022-08-01T10:38:56.061Z,31.00
2022-08-01T10:41:27.489Z,31.30
2022-08-01T10:43:56.668Z,31.10
2022-08-01T10:46:25.621Z,31.10
2022-08-01T10:49:07.476Z,32.10
2022-08-01T10:51:52.277Z,32.10
2022-08-01T10:54:26.592Z,32.10
2022-08-01T10:57:00.877Z,32.10
2022-08-01T10:59:58.930Z,31.60
2022-08-01T11:02:33.060Z,31.80
2022-08-01T11:05:10.450Z,32.60
2022-08-01T11:07:52.846Z,32.80
2022-08-01T11:10:31.286Z,32.70
2022-08-01T11:13:02.074Z,32.40
2022-08-01T11:15:32.458Z,32.50
2022-08-01T11:18:02.146Z,32.40
2022-08-01T11:20:42.210Z,32.70
2022-08-01T11:23:13.931Z,32.80
2022-08-01T11:26:05.813Z,33.50
2022-08-01T11:28:40.640Z,33.80
2022-08-01T11:31:27.714Z,33.10
2022-08-01T11:34:01.708Z,32.10
2022-08-01T11:36:57.665Z,32.20
2022-08-01T11:39:20.724Z,32.80
2022-08-01T11:41:50.127Z,33.80
2022-08-01T11:44:26.361Z,34.60
2022-08-01T11:47:08.900Z,34.70
2022-08-01T11:49:56.241Z,34.60
2022-08-01T11:52:29.083Z,34.10
2022-08-01T11:55:04.746Z,34.40
2022-08-01T11:57:38.343Z,35.20
2022-08-01T12:00:17.375Z,35.00
2022-08-01T12:02:47.202Z,34.90
2022-08-01T12:05:19.265Z,34.60
2022-08-01T12:07:51.675Z,33.80
2022-08-01T12:10:22.232Z,33.30
2022-08-01T12:12:52.504Z,33.60
2022-08-01T12:15:23.232Z,34.50
2022-08-01T12:17:57.509Z,34.70
2022-08-01T12:20:35.146Z,35.00
2022-08-01T12:23:07.203Z,35.40
2022-08-01T12:25:35.851Z,35.40
2022-08-01T12:28:07.219Z,35.70
2022-08-01T12:30:36.809Z,36.40
2022-08-01T12:33:07.164Z,35.70
2022-08-01T12:35:37.602Z,35.60
2022-08-01T12:38:08.230Z,35.50
2022-08-01T12:40:45.077Z,35.60
2022-08-01T12:43:27.504Z,35.80
2022-08-01T12:46:02.221Z,36.40
2022-08-01T12:48:31.663Z,37.00
2022-08-01T12:51:02.247Z,38.20
2022-08-01T12:53:41.208Z,37.80
2022-08-01T12:56:11.958Z,35.90
2022-08-01T12:58:40.429Z,33.80
2022-08-01T13:01:12.438Z,32.90
2022-08-01T13:03:41.418Z,32.10
2022-08-01T13:06:15.525Z,31.40
2022-08-01T13:08:45.045Z,31.20
2022-08-01T13:11:18.194Z,31.90
2022-08-01T13:13:51.290Z,32.60
2022-08-01T13:16:27.804Z,33.40
2022-08-01T13:19:07.558Z,34.20
2022-08-01T13:21:53.608Z,35.70
2022-08-01T13:24:30.469Z,36.70
2022-08-01T13:27:04.661Z,36.60
2022-08-01T13:29:43.901Z,35.80
2022-08-01T13:32:29.092Z,36.20
2022-08-01T13:35:08.769Z,36.60
2022-08-01T13:37:38.567Z,36.40
2022-08-01T13:40:09.447Z,36.60
2022-08-01T13:42:38.358Z,37.00
2022-08-01T13:45:14.073Z,37.50
2022-08-01T13:48:12.469Z,36.60
2022-08-01T13:50:32.571Z,36.60
2022-08-01T13:53:00.373Z,37.00
2022-08-01T13:55:34.252Z,36.90
2022-08-01T13:58:04.326Z,34.90
2022-08-01T14:00:32.648Z,33.90
2022-08-01T14:03:00.351Z,33.00
2022-08-01T14:05:28.686Z,32.20
2022-08-01T14:07:57.436Z,31.20
2022-08-01T14:10:27.085Z,30.50
2022-08-01T14:12:56.885Z,29.70
2022-08-01T14:15:37.311Z,29.10
2022-08-01T14:18:09.263Z,28.60
2022-08-01T14:20:38.445Z,27.90
2022-08-01T14:23:08.924Z,27.10
2022-08-01T14:26:03.570Z,26.30
2022-08-01T14:28:28.411Z,24.80
2022-08-01T14:30:58.928Z,23.70
2022-08-01T14:33:27.443Z,23.00
2022-08-01T14:36:05.556Z,22.40
2022-08-01T14:38:46.275Z,21.60
2022-08-01T14:41:15.752Z,21.00
2022-08-01T14:43:43.710Z,20.60
2022-08-01T14:46:13.304Z,20.40
2022-08-01T14:48:40.742Z,20.20
2022-08-01T14:51:09.497Z,20.20
2022-08-01T14:53:38.476Z,20.20
2022-08-01T14:56:08.083Z,20.20
2022-08-01T14:58:36.630Z,20.50
2022-08-01T15:01:06.896Z,20.60
2022-08-01T15:03:35.192Z,20.70
2022-08-01T15:06:03.576Z,20.90
2022-08-01T15:08:31.061Z,21.00
2022-08-01T15:10:58.068Z,21.30
2022-08-01T15:13:26.362Z,21.50
2022-08-01T15:15:54.992Z,21.70
2022-08-01T15:18:29.688Z,21.80
2022-08-01T15:20:58.480Z,21.80
2022-08-01T15:23:25.465Z,21.80
2022-08-01T15:25:53.920Z,21.80
2022-08-01T15:28:21.710Z,21.80
2022-08-01T15:30:51.299Z,21.70
2022-08-01T15:33:18.452Z,21.70
2022-08-01T15:35:47.066Z,21.60
2022-08-01T15:38:14.403Z,21.70
2022-08-01T15:40:42.299Z,21.70
2022-08-01T15:43:09.347Z,21.60
2022-08-01T15:45:47.750Z,21.60
2022-08-01T15:48:19.646Z,21.50
2022-08-01T15:50:49.097Z,21.40
2022-08-01T15:53:16.537Z,21.50
2022-08-01T15:55:52.740Z,21.50
2022-08-01T15:58:20.708Z,21.50
2022-08-01T16:00:48.874Z,21.50
2022-08-01T16:03:16.471Z,21.40
2022-08-01T16:05:44.799Z,21.20
2022-08-01T16:08:13.106Z,21.30
2022-08-01T16:10:40.557Z,21.40
2022-08-01T16:13:09.272Z,21.30
2022-08-01T16:15:39.296Z,21.30
2022-08-01T16:18:14.607Z,21.10
2022-08-01T16:20:45.824Z,21.00
2022-08-01T16:23:15.326Z,21.00
2022-08-01T16:25:44.584Z,21.00
2022-08-01T16:28:14.228Z,21.00
2022-08-01T16:30:48.771Z,21.00
2022-08-01T16:33:41.224Z,20.90
2022-08-01T16:36:16.743Z,20.80
2022-08-01T16:38:45.419Z,20.80
2022-08-01T16:41:19.248Z,20.60
2022-08-01T16:43:53.745Z,20.40
2022-08-01T16:46:25.350Z,20.50
2022-08-01T16:48:54.138Z,20.70
2022-08-01T16:51:22.376Z,20.70
2022-08-01T16:53:49.934Z,20.80
2022-08-01T16:56:18.541Z,20.80
2022-08-01T16:58:47.373Z,20.60
2022-08-01T17:01:59.349Z,20.50
2022-08-01T17:04:03.810Z,20.40
2022-08-01T17:06:31.622Z,20.30
2022-08-01T17:08:59.738Z,20.50
2022-08-01T17:11:26.978Z,20.50
2022-08-01T17:13:55.368Z,20.50
2022-08-01T17:16:23.040Z,20.50
2022-08-01T17:18:51.453Z,20.70
2022-08-01T17:21:19.499Z,20.70
2022-08-01T17:23:46.792Z,20.70
2022-08-01T17:26:15.052Z,20.80
2022-08-01T17:28:43.614Z,20.90
2022-08-01T17:31:11.724Z,20.90
2022-08-01T17:33:45.358Z,20.90
2022-08-01T17:36:17.983Z,20.80
2022-08-01T17:38:46.851Z,20.90
2022-08-01T17:41:15.165Z,21.10
2022-08-01T17:43:43.532Z,21.10
2022-08-01T17:46:10.851Z,21.10
2022-08-01T17:48:39.133Z,21.20
2022-08-01T17:51:06.943Z,21.30
2022-08-01T17:53:35.541Z,21.20
2022-08-01T17:56:06.018Z,21.20
2022-08-01T17:58:51.890Z,21.30
2022-08-01T18:01:26.813Z,21.30
2022-08-01T18:03:55.989Z,21.40
2022-08-01T18:06:27.235Z,21.30
2022-08-01T18:08:56.248Z,21.30
2022-08-01T18:11:27.216Z,21.20
2022-08-01T18:13:59.770Z,21.10
2022-08-01T18:16:28.519Z,21.10
2022-08-01T18:18:56.126Z,21.10
2022-08-01T18:21:24.441Z,21.10
2022-08-01T18:23:52.268Z,21.00
2022-08-01T18:26:21.865Z,21.00
2022-08-01T18:28:49.907Z,21.00
2022-08-01T18:31:20.720Z,21.00
2022-08-01T18:33:48.995Z,20.90
2022-08-01T18:36:32.017Z,20.90
2022-08-01T18:39:10.105Z,20.90
2022-08-01T18:41:39.479Z,20.80
2022-08-01T18:44:08.956Z,20.80
2022-08-01T18:46:39.092Z,20.60
2022-08-01T18:49:10.432Z,20.50
2022-08-01T18:51:44.404Z,20.50
2022-08-01T18:54:14.162Z,20.40
2022-08-01T18:56:44.566Z,20.40
2022-08-01T18:59:12.267Z,20.40
2022-08-01T19:01:40.667Z,20.30
2022-08-01T19:04:09.580Z,20.20
2022-08-01T19:06:36.975Z,20.20
2022-08-01T19:09:05.467Z,20.10
2022-08-01T19:11:34.130Z,20.00
2022-08-01T19:14:03.075Z,20.00
2022-08-01T19:16:31.230Z,20.10
2022-08-01T19:18:58.731Z,19.80
2022-08-01T19:21:26.799Z,19.80
2022-08-01T19:24:13.185Z,19.80
2022-08-01T19:26:56.373Z,19.80
2022-08-01T19:29:35.562Z,19.80
2022-08-01T19:32:06.878Z,19.90
2022-08-01T19:34:42.461Z,19.80
2022-08-01T19:37:12.089Z,19.70
2022-08-01T19:39:44.422Z,19.70
2022-08-01T19:42:13.535Z,19.60
2022-08-01T19:44:40.918Z,19.60
2022-08-01T19:47:09.845Z,19.60
2022-08-01T19:49:38.681Z,19.70
2022-08-01T19:52:07.672Z,19.60
2022-08-01T19:54:38.050Z,19.60
2022-08-01T19:57:07.572Z,19.70
2022-08-01T19:59:37.032Z,19.40
2022-08-01T20:02:05.896Z,19.10
2022-08-01T20:04:35.261Z,18.90
2022-08-01T20:07:03.577Z,18.80
2022-08-01T20:09:31.901Z,18.60
2022-08-01T20:12:00.408Z,18.50
2022-08-01T20:14:27.914Z,18.50
2022-08-01T20:16:56.795Z,18.40
2022-08-01T20:19:25.894Z,18.30
2022-08-01T20:22:02.980Z,18.10
2022-08-01T20:24:45.996Z,18.10
2022-08-01T20:27:15.733Z,18.00
2022-08-01T20:29:45.153Z,17.90
2022-08-01T20:32:14.999Z,17.90
2022-08-01T20:34:43.411Z,17.90
2022-08-01T20:37:12.721Z,17.80
2022-08-01T20:39:44.236Z,17.80
2022-08-01T20:42:16.365Z,17.80
2022-08-01T20:44:45.413Z,17.90
2022-08-01T20:47:15.066Z,17.80
2022-08-01T20:49:44.342Z,17.80
2022-08-01T20:52:12.756Z,17.80
2022-08-01T20:54:42.134Z,17.70
2022-08-01T20:57:21.115Z,17.60
2022-08-01T20:59:57.565Z,17.50
2022-08-01T21:02:31.063Z,17.40
2022-08-01T21:05:12.720Z,17.30
2022-08-01T21:07:47.061Z,17.20
2022-08-01T21:10:16.481Z,17.00
2022-08-01T21:12:58.611Z,16.90
2022-08-01T21:15:31.708Z,16.90
2022-08-01T21:18:02.506Z,16.90
2022-08-01T21:20:33.595Z,16.80
2022-08-01T21:23:43.028Z,16.70
2022-08-01T21:26:12.396Z,16.60
2022-08-01T21:28:40.986Z,16.60
2022-08-01T21:31:23.133Z,16.50
2022-08-01T21:34:02.005Z,16.50
2022-08-01T21:36:32.209Z,16.50
2022-08-01T21:39:02.577Z,16.50
2022-08-01T21:42:03.340Z,16.50
2022-08-01T21:44:29.009Z,16.50
2022-08-01T21:47:00.990Z,16.50
2022-08-01T21:49:28.857Z,16.50
2022-08-01T21:52:21.458Z,16.50
2022-08-01T21:55:10.887Z,16.50
2022-08-01T21:58:03.568Z,16.50
2022-08-01T22:00:31.086Z,16.60
2022-08-01T22:03:30.623Z,16.60
2022-08-01T22:06:03.170Z,16.60
2022-08-01T22:08:39.799Z,16.60
2022-08-01T22:11:12.663Z,16.60
2022-08-01T22:13:39.851Z,16.50
2022-08-01T22:16:09.895Z,16.50
2022-08-01T22:18:38.666Z,16.40
2022-08-01T22:21:08.098Z,16.40
2022-08-01T22:23:37.408Z,16.40
2022-08-01T22:26:10.706Z,16.40
2022-08-01T22:28:40.472Z,16.40
2022-08-01T22:31:07.767Z,16.40
2022-08-01T22:33:37.644Z,16.40
2022-08-01T22:36:06.459Z,16.40
2022-08-01T22:38:34.858Z,16.40
2022-08-01T22:41:16.183Z,16.40
2022-08-01T22:43:57.535Z,16.40
2022-08-01T22:46:32.819Z,16.40
2022-08-01T22:49:34.968Z,16.40
2022-08-01T22:52:20.336Z,16.40
2022-08-01T22:54:51.218Z,16.30
2022-08-01T22:57:35.008Z,16.20
2022-08-01T23:00:09.349Z,16.20
2022-08-01T23:02:54.491Z,16.20
2022-08-01T23:05:25.101Z,16.20
2022-08-01T23:07:54.774Z,16.20
2022-08-01T23:10:25.002Z,16.20
2022-08-01T23:12:54.778Z,16.20
2022-08-01T23:15:24.295Z,16.20
2022-08-01T23:17:53.285Z,16.20
2022-08-01T23:20:22.350Z,16.30
2022-08-01T23:22:52.079Z,16.30
2022-08-01T23:25:20.137Z,16.30
2022-08-01T23:27:51.340Z,16.30
2022-08-01T23:30:34.159Z,16.30
2022-08-01T23:33:02.365Z,16.20
2022-08-01T23:35:30.438Z,16.20
2022-08-01T23:38:02.219Z,16.20
2022-08-01T23:40:34.433Z,16.20
2022-08-01T23:43:03.680Z,16.10
2022-08-01T23:46:02.523Z,16.10
2022-08-01T23:48:19.365Z,16.00
2022-08-01T23:50:46.781Z,16.00
2022-08-01T23:53:15.325Z,15.90
2022-08-01T23:55:44.276Z,15.90
2022-08-01T23:58:11.885Z,15.90
